sensor_id;sensor_type;location;lat;lon;timestamp;P1;durP1;ratioP1;P2;durP2;ratioP2
11711;SDS011;5912;51.034;6.984;2022-11-14T00:00:35;7.73;;;6.13;;
11711;SDS011;5912;51.034;6.984;2022-11-14T00:03:01;8.30;;;6.77;;
11711;SDS011;5912;51.034;6.984;2022-11-14T00:05:28;8.97;;;6.90;;
11711;SDS011;5912;51.034;6.984;2022-11-14T00:07:53;9.47;;;6.93;;
11711;SDS011;5912;51.034;6.984;2022-11-14T00:10:19;9.70;;;6.87;;
11711;SDS011;5912;51.034;6.984;2022-11-14T00:12:45;7.80;;;6.27;;
11711;SDS011;5912;51.034;6.984;2022-11-14T00:15:10;9.80;;;6.77;;
11711;SDS011;5912;51.034;6.984;2022-11-14T00:17:37;8.70;;;6.93;;
11711;SDS011;5912;51.034;6.984;2022-11-14T00:20:03;8.23;;;6.30;;
11711;SDS011;5912;51.034;6.984;2022-11-14T00:22:30;8.13;;;6.63;;
11711;SDS011;5912;51.034;6.984;2022-11-14T00:24:56;9.97;;;6.80;;
11711;SDS011;5912;51.034;6.984;2022-11-14T00:27:21;12.07;;;7.70;;
11711;SDS011;5912;51.034;6.984;2022-11-14T00:29:47;8.77;;;6.90;;
11711;SDS011;5912;51.034;6.984;2022-11-14T00:32:12;11.10;;;7.43;;
11711;SDS011;5912;51.034;6.984;2022-11-14T00:34:37;8.77;;;6.37;;
11711;SDS011;5912;51.034;6.984;2022-11-14T00:37:03;8.93;;;6.73;;
11711;SDS011;5912;51.034;6.984;2022-11-14T00:39:28;7.97;;;6.30;;
11711;SDS011;5912;51.034;6.984;2022-11-14T00:41:54;9.93;;;6.40;;
11711;SDS011;5912;51.034;6.984;2022-11-14T00:44:19;7.40;;;5.60;;
11711;SDS011;5912;51.034;6.984;2022-11-14T00:46:44;8.10;;;5.73;;
11711;SDS011;5912;51.034;6.984;2022-11-14T00:49:10;7.77;;;6.00;;
11711;SDS011;5912;51.034;6.984;2022-11-14T00:51:35;6.83;;;5.70;;
11711;SDS011;5912;51.034;6.984;2022-11-14T00:54:01;7.30;;;5.80;;
11711;SDS011;5912;51.034;6.984;2022-11-14T00:56:26;7.27;;;5.97;;
11711;SDS011;5912;51.034;6.984;2022-11-14T00:58:52;9.03;;;5.93;;
11711;SDS011;5912;51.034;6.984;2022-11-14T01:01:17;7.63;;;5.47;;
11711;SDS011;5912;51.034;6.984;2022-11-14T01:03:45;6.40;;;5.50;;
11711;SDS011;5912;51.034;6.984;2022-11-14T01:06:12;8.10;;;5.70;;
11711;SDS011;5912;51.034;6.984;2022-11-14T01:08:38;8.43;;;6.00;;
11711;SDS011;5912;51.034;6.984;2022-11-14T01:11:07;6.80;;;5.30;;
11711;SDS011;5912;51.034;6.984;2022-11-14T01:13:35;8.17;;;5.83;;
11711;SDS011;5912;51.034;6.984;2022-11-14T01:16:01;7.53;;;5.40;;
11711;SDS011;5912;51.034;6.984;2022-11-14T01:18:26;6.80;;;5.67;;
11711;SDS011;5912;51.034;6.984;2022-11-14T01:20:52;7.60;;;5.43;;
11711;SDS011;5912;51.034;6.984;2022-11-14T01:23:17;7.10;;;6.00;;
11711;SDS011;5912;51.034;6.984;2022-11-14T01:25:43;7.47;;;5.80;;
11711;SDS011;5912;51.034;6.984;2022-11-14T01:28:13;6.60;;;5.77;;
11711;SDS011;5912;51.034;6.984;2022-11-14T01:30:40;7.67;;;5.80;;
11711;SDS011;5912;51.034;6.984;2022-11-14T01:33:06;7.47;;;5.50;;
11711;SDS011;5912;51.034;6.984;2022-11-14T01:35:33;6.30;;;5.23;;
11711;SDS011;5912;51.034;6.984;2022-11-14T01:38:00;8.67;;;6.20;;
11711;SDS011;5912;51.034;6.984;2022-11-14T01:40:26;7.20;;;5.50;;
11711;SDS011;5912;51.034;6.984;2022-11-14T01:43:26;7.70;;;5.93;;
11711;SDS011;5912;51.034;6.984;2022-11-14T01:45:54;6.60;;;5.73;;
11711;SDS011;5912;51.034;6.984;2022-11-14T01:50:53;8.77;;;5.90;;
11711;SDS011;5912;51.034;6.984;2022-11-14T01:53:22;8.60;;;5.63;;
11711;SDS011;5912;51.034;6.984;2022-11-14T01:55:48;8.23;;;5.90;;
11711;SDS011;5912;51.034;6.984;2022-11-14T01:58:15;8.90;;;5.80;;
11711;SDS011;5912;51.034;6.984;2022-11-14T02:00:41;8.27;;;5.73;;
11711;SDS011;5912;51.034;6.984;2022-11-14T02:03:07;7.50;;;6.07;;
11711;SDS011;5912;51.034;6.984;2022-11-14T02:05:34;7.90;;;5.50;;
11711;SDS011;5912;51.034;6.984;2022-11-14T02:08:00;6.90;;;5.50;;
11711;SDS011;5912;51.034;6.984;2022-11-14T02:10:25;6.73;;;5.40;;
11711;SDS011;5912;51.034;6.984;2022-11-14T02:12:50;8.13;;;5.60;;
11711;SDS011;5912;51.034;6.984;2022-11-14T02:15:17;6.87;;;5.50;;
11711;SDS011;5912;51.034;6.984;2022-11-14T02:17:43;7.83;;;5.40;;
11711;SDS011;5912;51.034;6.984;2022-11-14T02:22:34;6.50;;;4.90;;
11711;SDS011;5912;51.034;6.984;2022-11-14T02:25:01;7.77;;;5.07;;
11711;SDS011;5912;51.034;6.984;2022-11-14T02:27:27;7.23;;;5.17;;
11711;SDS011;5912;51.034;6.984;2022-11-14T02:29:54;7.07;;;5.30;;
11711;SDS011;5912;51.034;6.984;2022-11-14T02:32:26;7.10;;;5.10;;
11711;SDS011;5912;51.034;6.984;2022-11-14T02:34:51;7.27;;;5.07;;
11711;SDS011;5912;51.034;6.984;2022-11-14T02:37:17;7.50;;;5.17;;
11711;SDS011;5912;51.034;6.984;2022-11-14T02:39:42;7.80;;;5.40;;
11711;SDS011;5912;51.034;6.984;2022-11-14T02:42:07;6.90;;;5.37;;
11711;SDS011;5912;51.034;6.984;2022-11-14T02:44:33;6.80;;;5.03;;
11711;SDS011;5912;51.034;6.984;2022-11-14T02:46:58;6.97;;;4.87;;
11711;SDS011;5912;51.034;6.984;2022-11-14T02:49:23;6.80;;;5.03;;
11711;SDS011;5912;51.034;6.984;2022-11-14T02:51:48;6.40;;;5.20;;
11711;SDS011;5912;51.034;6.984;2022-11-14T02:54:14;5.70;;;4.67;;
11711;SDS011;5912;51.034;6.984;2022-11-14T02:56:39;8.77;;;4.83;;
11711;SDS011;5912;51.034;6.984;2022-11-14T02:59:05;6.47;;;4.90;;
11711;SDS011;5912;51.034;6.984;2022-11-14T03:01:30;6.53;;;4.40;;
11711;SDS011;5912;51.034;6.984;2022-11-14T03:03:55;5.90;;;4.67;;
11711;SDS011;5912;51.034;6.984;2022-11-14T03:06:21;6.83;;;5.20;;
11711;SDS011;5912;51.034;6.984;2022-11-14T03:08:46;8.03;;;5.33;;
11711;SDS011;5912;51.034;6.984;2022-11-14T03:11:11;5.37;;;4.73;;
11711;SDS011;5912;51.034;6.984;2022-11-14T03:13:36;6.37;;;5.10;;
11711;SDS011;5912;51.034;6.984;2022-11-14T03:16:05;8.03;;;5.80;;
11711;SDS011;5912;51.034;6.984;2022-11-14T03:18:33;7.00;;;5.40;;
11711;SDS011;5912;51.034;6.984;2022-11-14T03:21:12;6.83;;;5.27;;
11711;SDS011;5912;51.034;6.984;2022-11-14T03:23:39;7.17;;;4.70;;
11711;SDS011;5912;51.034;6.984;2022-11-14T03:26:06;7.67;;;4.90;;
11711;SDS011;5912;51.034;6.984;2022-11-14T03:28:32;5.93;;;4.70;;
11711;SDS011;5912;51.034;6.984;2022-11-14T03:30:58;6.00;;;4.87;;
11711;SDS011;5912;51.034;6.984;2022-11-14T03:33:24;5.70;;;4.40;;
11711;SDS011;5912;51.034;6.984;2022-11-14T03:35:54;6.37;;;4.97;;
11711;SDS011;5912;51.034;6.984;2022-11-14T03:38:20;6.13;;;4.50;;
11711;SDS011;5912;51.034;6.984;2022-11-14T03:40:48;5.30;;;4.07;;
11711;SDS011;5912;51.034;6.984;2022-11-14T03:43:15;5.90;;;4.63;;
11711;SDS011;5912;51.034;6.984;2022-11-14T03:45:44;6.40;;;4.30;;
11711;SDS011;5912;51.034;6.984;2022-11-14T03:48:10;5.50;;;4.30;;
11711;SDS011;5912;51.034;6.984;2022-11-14T03:50:35;4.67;;;4.17;;
11711;SDS011;5912;51.034;6.984;2022-11-14T03:53:01;5.17;;;4.00;;
11711;SDS011;5912;51.034;6.984;2022-11-14T03:55:26;5.03;;;3.77;;
11711;SDS011;5912;51.034;6.984;2022-11-14T03:57:51;5.63;;;3.80;;
11711;SDS011;5912;51.034;6.984;2022-11-14T04:00:17;5.37;;;4.30;;
11711;SDS011;5912;51.034;6.984;2022-11-14T04:02:42;5.60;;;3.77;;
11711;SDS011;5912;51.034;6.984;2022-11-14T04:05:08;4.23;;;3.57;;
11711;SDS011;5912;51.034;6.984;2022-11-14T04:07:33;5.03;;;4.20;;
11711;SDS011;5912;51.034;6.984;2022-11-14T04:09:59;4.50;;;3.53;;
11711;SDS011;5912;51.034;6.984;2022-11-14T04:12:24;4.90;;;3.90;;
11711;SDS011;5912;51.034;6.984;2022-11-14T04:14:50;5.30;;;3.77;;
11711;SDS011;5912;51.034;6.984;2022-11-14T04:17:15;4.47;;;3.60;;
11711;SDS011;5912;51.034;6.984;2022-11-14T04:19:40;6.70;;;3.93;;
11711;SDS011;5912;51.034;6.984;2022-11-14T04:22:06;5.07;;;3.57;;
11711;SDS011;5912;51.034;6.984;2022-11-14T04:24:31;6.50;;;4.10;;
11711;SDS011;5912;51.034;6.984;2022-11-14T04:26:57;4.77;;;3.43;;
11711;SDS011;5912;51.034;6.984;2022-11-14T04:29:22;5.10;;;3.33;;
11711;SDS011;5912;51.034;6.984;2022-11-14T04:31:48;4.00;;;3.10;;
11711;SDS011;5912;51.034;6.984;2022-11-14T04:34:13;4.77;;;3.30;;
11711;SDS011;5912;51.034;6.984;2022-11-14T04:36:38;5.20;;;3.87;;
11711;SDS011;5912;51.034;6.984;2022-11-14T04:39:04;5.27;;;3.73;;
11711;SDS011;5912;51.034;6.984;2022-11-14T04:41:29;5.07;;;3.70;;
11711;SDS011;5912;51.034;6.984;2022-11-14T04:43:54;4.03;;;3.23;;
11711;SDS011;5912;51.034;6.984;2022-11-14T04:46:20;4.40;;;3.00;;
11711;SDS011;5912;51.034;6.984;2022-11-14T04:48:45;4.63;;;3.43;;
11711;SDS011;5912;51.034;6.984;2022-11-14T04:51:10;4.47;;;3.53;;
11711;SDS011;5912;51.034;6.984;2022-11-14T04:53:36;3.97;;;3.47;;
11711;SDS011;5912;51.034;6.984;2022-11-14T04:56:01;3.53;;;2.97;;
11711;SDS011;5912;51.034;6.984;2022-11-14T04:58:27;3.93;;;3.10;;
11711;SDS011;5912;51.034;6.984;2022-11-14T05:00:52;4.70;;;3.40;;
11711;SDS011;5912;51.034;6.984;2022-11-14T05:03:17;3.37;;;2.93;;
11711;SDS011;5912;51.034;6.984;2022-11-14T05:05:43;4.67;;;3.53;;
11711;SDS011;5912;51.034;6.984;2022-11-14T05:08:08;3.90;;;3.50;;
11711;SDS011;5912;51.034;6.984;2022-11-14T05:10:33;4.73;;;3.70;;
11711;SDS011;5912;51.034;6.984;2022-11-14T05:12:59;4.07;;;3.60;;
11711;SDS011;5912;51.034;6.984;2022-11-14T05:15:24;3.50;;;2.97;;
11711;SDS011;5912;51.034;6.984;2022-11-14T05:17:50;4.73;;;3.43;;
11711;SDS011;5912;51.034;6.984;2022-11-14T05:20:15;4.87;;;3.57;;
11711;SDS011;5912;51.034;6.984;2022-11-14T05:22:41;4.20;;;3.47;;
11711;SDS011;5912;51.034;6.984;2022-11-14T05:25:06;4.07;;;3.40;;
11711;SDS011;5912;51.034;6.984;2022-11-14T05:27:32;4.23;;;3.60;;
11711;SDS011;5912;51.034;6.984;2022-11-14T05:29:58;4.43;;;3.50;;
11711;SDS011;5912;51.034;6.984;2022-11-14T05:32:24;5.80;;;3.53;;
11711;SDS011;5912;51.034;6.984;2022-11-14T05:34:49;5.87;;;3.60;;
11711;SDS011;5912;51.034;6.984;2022-11-14T05:37:14;3.53;;;3.20;;
11711;SDS011;5912;51.034;6.984;2022-11-14T05:39:40;4.83;;;3.40;;
11711;SDS011;5912;51.034;6.984;2022-11-14T05:42:05;5.03;;;3.47;;
11711;SDS011;5912;51.034;6.984;2022-11-14T05:44:31;4.17;;;3.17;;
11711;SDS011;5912;51.034;6.984;2022-11-14T05:46:56;4.70;;;3.10;;
11711;SDS011;5912;51.034;6.984;2022-11-14T05:49:22;6.80;;;3.70;;
11711;SDS011;5912;51.034;6.984;2022-11-14T05:51:47;4.40;;;3.30;;
11711;SDS011;5912;51.034;6.984;2022-11-14T05:54:13;4.90;;;3.80;;
11711;SDS011;5912;51.034;6.984;2022-11-14T05:56:38;5.67;;;3.87;;
11711;SDS011;5912;51.034;6.984;2022-11-14T05:59:03;4.03;;;3.23;;
11711;SDS011;5912;51.034;6.984;2022-11-14T06:01:29;5.13;;;3.50;;
11711;SDS011;5912;51.034;6.984;2022-11-14T06:03:54;5.33;;;3.50;;
11711;SDS011;5912;51.034;6.984;2022-11-14T06:06:20;4.13;;;3.40;;
11711;SDS011;5912;51.034;6.984;2022-11-14T06:08:46;6.60;;;3.63;;
11711;SDS011;5912;51.034;6.984;2022-11-14T06:11:13;4.03;;;3.00;;
11711;SDS011;5912;51.034;6.984;2022-11-14T06:13:40;5.03;;;3.70;;
11711;SDS011;5912;51.034;6.984;2022-11-14T06:16:10;4.87;;;3.83;;
11711;SDS011;5912;51.034;6.984;2022-11-14T06:18:40;5.20;;;3.50;;
11711;SDS011;5912;51.034;6.984;2022-11-14T06:21:07;4.77;;;3.43;;
11711;SDS011;5912;51.034;6.984;2022-11-14T06:23:35;4.30;;;3.27;;
11711;SDS011;5912;51.034;6.984;2022-11-14T06:26:01;5.00;;;3.53;;
11711;SDS011;5912;51.034;6.984;2022-11-14T06:28:28;6.60;;;3.90;;
11711;SDS011;5912;51.034;6.984;2022-11-14T06:31:01;4.27;;;3.87;;
11711;SDS011;5912;51.034;6.984;2022-11-14T06:33:29;4.67;;;3.97;;
11711;SDS011;5912;51.034;6.984;2022-11-14T06:36:02;4.03;;;3.40;;
11711;SDS011;5912;51.034;6.984;2022-11-14T06:41:47;4.37;;;3.33;;
11711;SDS011;5912;51.034;6.984;2022-11-14T06:44:13;5.13;;;3.80;;
11711;SDS011;5912;51.034;6.984;2022-11-14T06:46:39;5.50;;;4.30;;
11711;SDS011;5912;51.034;6.984;2022-11-14T06:49:04;4.70;;;3.83;;
11711;SDS011;5912;51.034;6.984;2022-11-14T06:51:30;4.90;;;3.60;;
11711;SDS011;5912;51.034;6.984;2022-11-14T06:53:56;5.30;;;3.70;;
11711;SDS011;5912;51.034;6.984;2022-11-14T06:56:21;4.27;;;3.73;;
11711;SDS011;5912;51.034;6.984;2022-11-14T06:58:47;6.27;;;4.13;;
11711;SDS011;5912;51.034;6.984;2022-11-14T07:01:15;5.13;;;4.10;;
11711;SDS011;5912;51.034;6.984;2022-11-14T07:03:42;4.93;;;3.67;;
11711;SDS011;5912;51.034;6.984;2022-11-14T07:06:09;5.67;;;3.87;;
11711;SDS011;5912;51.034;6.984;2022-11-14T07:08:37;4.83;;;3.80;;
11711;SDS011;5912;51.034;6.984;2022-11-14T07:11:10;5.13;;;3.93;;
11711;SDS011;5912;51.034;6.984;2022-11-14T07:13:46;4.93;;;3.70;;
11711;SDS011;5912;51.034;6.984;2022-11-14T07:16:15;7.77;;;4.17;;
11711;SDS011;5912;51.034;6.984;2022-11-14T07:18:41;5.33;;;4.30;;
11711;SDS011;5912;51.034;6.984;2022-11-14T07:21:07;5.37;;;4.30;;
11711;SDS011;5912;51.034;6.984;2022-11-14T07:23:33;6.03;;;4.27;;
11711;SDS011;5912;51.034;6.984;2022-11-14T07:26:03;6.00;;;4.00;;
11711;SDS011;5912;51.034;6.984;2022-11-14T07:28:34;4.80;;;4.10;;
11711;SDS011;5912;51.034;6.984;2022-11-14T07:31:04;4.93;;;4.10;;
11711;SDS011;5912;51.034;6.984;2022-11-14T07:33:31;6.00;;;4.53;;
11711;SDS011;5912;51.034;6.984;2022-11-14T07:35:57;5.93;;;4.63;;
11711;SDS011;5912;51.034;6.984;2022-11-14T07:38:22;6.20;;;4.87;;
11711;SDS011;5912;51.034;6.984;2022-11-14T07:40:54;6.40;;;4.80;;
11711;SDS011;5912;51.034;6.984;2022-11-14T07:43:21;5.43;;;4.67;;
11711;SDS011;5912;51.034;6.984;2022-11-14T07:45:46;5.47;;;4.20;;
11711;SDS011;5912;51.034;6.984;2022-11-14T07:48:11;6.60;;;4.67;;
11711;SDS011;5912;51.034;6.984;2022-11-14T07:50:37;9.73;;;5.07;;
11711;SDS011;5912;51.034;6.984;2022-11-14T07:53:02;7.07;;;4.87;;
11711;SDS011;5912;51.034;6.984;2022-11-14T07:55:27;6.90;;;5.23;;
11711;SDS011;5912;51.034;6.984;2022-11-14T07:57:53;7.73;;;4.73;;
11711;SDS011;5912;51.034;6.984;2022-11-14T08:00:19;7.77;;;5.50;;
11711;SDS011;5912;51.034;6.984;2022-11-14T08:02:48;7.13;;;5.37;;
11711;SDS011;5912;51.034;6.984;2022-11-14T08:05:13;9.70;;;5.77;;
11711;SDS011;5912;51.034;6.984;2022-11-14T08:07:38;7.40;;;5.47;;
11711;SDS011;5912;51.034;6.984;2022-11-14T08:10:04;8.17;;;5.73;;
11711;SDS011;5912;51.034;6.984;2022-11-14T08:12:30;11.20;;;6.87;;
11711;SDS011;5912;51.034;6.984;2022-11-14T08:14:55;9.83;;;5.87;;
11711;SDS011;5912;51.034;6.984;2022-11-14T08:17:21;8.53;;;6.20;;
11711;SDS011;5912;51.034;6.984;2022-11-14T08:19:47;12.33;;;6.70;;
11711;SDS011;5912;51.034;6.984;2022-11-14T08:22:12;9.83;;;6.50;;
11711;SDS011;5912;51.034;6.984;2022-11-14T08:24:37;9.63;;;6.70;;
11711;SDS011;5912;51.034;6.984;2022-11-14T08:27:03;9.80;;;6.67;;
11711;SDS011;5912;51.034;6.984;2022-11-14T08:29:28;8.97;;;6.20;;
11711;SDS011;5912;51.034;6.984;2022-11-14T08:31:53;9.60;;;6.87;;
11711;SDS011;5912;51.034;6.984;2022-11-14T08:34:19;8.40;;;6.60;;
11711;SDS011;5912;51.034;6.984;2022-11-14T08:36:46;9.77;;;5.93;;
11711;SDS011;5912;51.034;6.984;2022-11-14T08:39:20;11.87;;;7.43;;
11711;SDS011;5912;51.034;6.984;2022-11-14T08:41:46;9.83;;;6.87;;
11711;SDS011;5912;51.034;6.984;2022-11-14T08:44:11;11.17;;;7.43;;
11711;SDS011;5912;51.034;6.984;2022-11-14T08:46:36;11.63;;;6.80;;
11711;SDS011;5912;51.034;6.984;2022-11-14T08:49:02;10.43;;;6.40;;
11711;SDS011;5912;51.034;6.984;2022-11-14T08:51:27;12.93;;;8.20;;
11711;SDS011;5912;51.034;6.984;2022-11-14T08:53:52;11.13;;;7.37;;
11711;SDS011;5912;51.034;6.984;2022-11-14T08:56:18;12.10;;;7.70;;
11711;SDS011;5912;51.034;6.984;2022-11-14T08:58:43;11.77;;;7.80;;
11711;SDS011;5912;51.034;6.984;2022-11-14T09:01:08;12.83;;;8.60;;
11711;SDS011;5912;51.034;6.984;2022-11-14T09:03:34;14.20;;;8.50;;
11711;SDS011;5912;51.034;6.984;2022-11-14T09:06:00;15.00;;;9.33;;
11711;SDS011;5912;51.034;6.984;2022-11-14T09:08:26;14.57;;;9.60;;
11711;SDS011;5912;51.034;6.984;2022-11-14T09:10:52;16.40;;;9.83;;
11711;SDS011;5912;51.034;6.984;2022-11-14T09:13:18;16.07;;;10.37;;
11711;SDS011;5912;51.034;6.984;2022-11-14T09:15:58;13.30;;;9.33;;
11711;SDS011;5912;51.034;6.984;2022-11-14T09:18:24;16.83;;;9.50;;
11711;SDS011;5912;51.034;6.984;2022-11-14T09:20:50;19.97;;;9.87;;
11711;SDS011;5912;51.034;6.984;2022-11-14T09:23:15;14.70;;;9.77;;
11711;SDS011;5912;51.034;6.984;2022-11-14T09:25:41;14.63;;;9.53;;
11711;SDS011;5912;51.034;6.984;2022-11-14T09:28:06;14.50;;;9.03;;
11711;SDS011;5912;51.034;6.984;2022-11-14T09:30:33;14.37;;;9.27;;
11711;SDS011;5912;51.034;6.984;2022-11-14T09:33:01;15.13;;;9.67;;
11711;SDS011;5912;51.034;6.984;2022-11-14T09:35:42;16.20;;;9.20;;
11711;SDS011;5912;51.034;6.984;2022-11-14T09:38:08;15.03;;;9.13;;
11711;SDS011;5912;51.034;6.984;2022-11-14T09:46:21;14.30;;;9.47;;
11711;SDS011;5912;51.034;6.984;2022-11-14T09:48:49;13.60;;;9.30;;
11711;SDS011;5912;51.034;6.984;2022-11-14T09:51:23;14.13;;;9.13;;
11711;SDS011;5912;51.034;6.984;2022-11-14T09:53:54;16.55;;;9.45;;
11711;SDS011;5912;51.034;6.984;2022-11-14T09:56:29;15.57;;;9.80;;
11711;SDS011;5912;51.034;6.984;2022-11-14T09:58:54;15.97;;;9.60;;
11711;SDS011;5912;51.034;6.984;2022-11-14T10:01:39;14.68;;;9.35;;
11711;SDS011;5912;51.034;6.984;2022-11-14T10:04:12;13.37;;;9.30;;
11711;SDS011;5912;51.034;6.984;2022-11-14T10:06:52;14.67;;;8.87;;
11711;SDS011;5912;51.034;6.984;2022-11-14T10:12:17;15.68;;;9.20;;
11711;SDS011;5912;51.034;6.984;2022-11-14T10:31:08;13.37;;;8.87;;
11711;SDS011;5912;51.034;6.984;2022-11-14T10:42:07;12.98;;;8.68;;
11711;SDS011;5912;51.034;6.984;2022-11-14T10:44:42;13.05;;;8.32;;
11711;SDS011;5912;51.034;6.984;2022-11-14T10:47:15;13.95;;;8.60;;
11711;SDS011;5912;51.034;6.984;2022-11-14T10:49:44;15.57;;;8.13;;
11711;SDS011;5912;51.034;6.984;2022-11-14T10:52:12;14.15;;;8.63;;
11711;SDS011;5912;51.034;6.984;2022-11-14T10:54:42;13.20;;;8.20;;
11711;SDS011;5912;51.034;6.984;2022-11-14T10:57:14;12.52;;;8.43;;
11711;SDS011;5912;51.034;6.984;2022-11-14T10:59:41;13.07;;;8.73;;
11711;SDS011;5912;51.034;6.984;2022-11-14T11:02:07;13.55;;;8.02;;
11711;SDS011;5912;51.034;6.984;2022-11-14T11:04:33;12.57;;;8.43;;
11711;SDS011;5912;51.034;6.984;2022-11-14T11:09:36;11.32;;;8.02;;
11711;SDS011;5912;51.034;6.984;2022-11-14T11:12:23;13.43;;;8.55;;
11711;SDS011;5912;51.034;6.984;2022-11-14T11:18:43;11.75;;;8.27;;
11711;SDS011;5912;51.034;6.984;2022-11-14T11:21:02;13.80;;;8.82;;
11711;SDS011;5912;51.034;6.984;2022-11-14T11:23:27;12.73;;;7.78;;
11711;SDS011;5912;51.034;6.984;2022-11-14T11:26:00;12.68;;;8.45;;
11711;SDS011;5912;51.034;6.984;2022-11-14T11:28:32;12.25;;;8.25;;
11711;SDS011;5912;51.034;6.984;2022-11-14T11:31:00;11.77;;;8.55;;
11711;SDS011;5912;51.034;6.984;2022-11-14T11:33:29;12.77;;;7.90;;
11711;SDS011;5912;51.034;6.984;2022-11-14T11:36:04;12.82;;;8.63;;
11711;SDS011;5912;51.034;6.984;2022-11-14T11:38:34;10.00;;;7.70;;
11711;SDS011;5912;51.034;6.984;2022-11-14T11:41:18;12.48;;;8.07;;
11711;SDS011;5912;51.034;6.984;2022-11-14T11:44:04;12.07;;;8.43;;
11711;SDS011;5912;51.034;6.984;2022-11-14T11:49:19;10.55;;;7.82;;
11711;SDS011;5912;51.034;6.984;2022-11-14T11:51:52;11.38;;;8.00;;
11711;SDS011;5912;51.034;6.984;2022-11-14T11:54:19;12.57;;;8.18;;
11711;SDS011;5912;51.034;6.984;2022-11-14T11:56:50;12.30;;;8.63;;
11711;SDS011;5912;51.034;6.984;2022-11-14T12:01:53;12.30;;;7.93;;
11711;SDS011;5912;51.034;6.984;2022-11-14T12:04:18;13.00;;;8.38;;
11711;SDS011;5912;51.034;6.984;2022-11-14T12:06:49;12.88;;;8.52;;
11711;SDS011;5912;51.034;6.984;2022-11-14T12:09:24;12.77;;;8.57;;
11711;SDS011;5912;51.034;6.984;2022-11-14T12:11:56;12.15;;;8.20;;
11711;SDS011;5912;51.034;6.984;2022-11-14T12:19:59;12.15;;;8.70;;
11711;SDS011;5912;51.034;6.984;2022-11-14T12:30:36;13.48;;;8.88;;
11711;SDS011;5912;51.034;6.984;2022-11-14T12:35:48;14.20;;;9.43;;
11711;SDS011;5912;51.034;6.984;2022-11-14T12:38:16;17.55;;;10.05;;
11711;SDS011;5912;51.034;6.984;2022-11-14T12:40:53;14.85;;;10.05;;
11711;SDS011;5912;51.034;6.984;2022-11-14T12:43:35;16.90;;;10.10;;
11711;SDS011;5912;51.034;6.984;2022-11-14T12:46:06;15.50;;;10.32;;
11711;SDS011;5912;51.034;6.984;2022-11-14T12:51:50;13.75;;;9.18;;
11711;SDS011;5912;51.034;6.984;2022-11-14T12:57:07;14.60;;;9.40;;
11711;SDS011;5912;51.034;6.984;2022-11-14T13:00:01;11.75;;;8.43;;
11711;SDS011;5912;51.034;6.984;2022-11-14T13:08:53;14.32;;;9.63;;
11711;SDS011;5912;51.034;6.984;2022-11-14T13:11:28;13.23;;;9.13;;
11711;SDS011;5912;51.034;6.984;2022-11-14T13:14:23;14.48;;;9.80;;
11711;SDS011;5912;51.034;6.984;2022-11-14T13:17:08;14.68;;;9.82;;
11711;SDS011;5912;51.034;6.984;2022-11-14T13:19:53;14.88;;;9.50;;
11711;SDS011;5912;51.034;6.984;2022-11-14T13:22:47;16.58;;;9.32;;
11711;SDS011;5912;51.034;6.984;2022-11-14T13:25:14;13.35;;;9.35;;
11711;SDS011;5912;51.034;6.984;2022-11-14T13:27:41;12.85;;;9.15;;
11711;SDS011;5912;51.034;6.984;2022-11-14T13:30:06;12.63;;;8.23;;
11711;SDS011;5912;51.034;6.984;2022-11-14T13:35:25;14.57;;;9.43;;
11711;SDS011;5912;51.034;6.984;2022-11-14T13:46:39;11.85;;;8.45;;
11711;SDS011;5912;51.034;6.984;2022-11-14T13:51:39;13.27;;;8.85;;
11711;SDS011;5912;51.034;6.984;2022-11-14T13:54:10;12.27;;;9.38;;
11711;SDS011;5912;51.034;6.984;2022-11-14T13:56:43;11.88;;;8.23;;
11711;SDS011;5912;51.034;6.984;2022-11-14T14:16:35;13.80;;;8.98;;
11711;SDS011;5912;51.034;6.984;2022-11-14T14:27:44;12.65;;;9.10;;
11711;SDS011;5912;51.034;6.984;2022-11-14T14:30:18;15.90;;;9.48;;
11711;SDS011;5912;51.034;6.984;2022-11-14T14:33:00;13.85;;;9.18;;
11711;SDS011;5912;51.034;6.984;2022-11-14T14:35:36;13.93;;;9.57;;
11711;SDS011;5912;51.034;6.984;2022-11-14T14:38:04;13.13;;;9.70;;
11711;SDS011;5912;51.034;6.984;2022-11-14T14:40:36;11.95;;;9.02;;
11711;SDS011;5912;51.034;6.984;2022-11-14T14:43:04;11.48;;;8.43;;
11711;SDS011;5912;51.034;6.984;2022-11-14T14:45:31;12.20;;;8.50;;
11711;SDS011;5912;51.034;6.984;2022-11-14T14:48:12;13.05;;;8.95;;
11711;SDS011;5912;51.034;6.984;2022-11-14T14:50:40;13.23;;;9.07;;
11711;SDS011;5912;51.034;6.984;2022-11-14T14:53:22;11.40;;;8.77;;
11711;SDS011;5912;51.034;6.984;2022-11-14T14:55:51;12.45;;;9.10;;
11711;SDS011;5912;51.034;6.984;2022-11-14T15:00:52;13.10;;;9.25;;
11711;SDS011;5912;51.034;6.984;2022-11-14T16:07:35;13.52;;;8.82;;
11711;SDS011;5912;51.034;6.984;2022-11-14T16:21:36;12.82;;;8.13;;
11711;SDS011;5912;51.034;6.984;2022-11-14T18:17:33;10.18;;;7.93;;
11711;SDS011;5912;51.034;6.984;2022-11-14T18:38:50;9.73;;;7.50;;
11711;SDS011;5912;51.034;6.984;2022-11-14T19:23:56;8.50;;;6.80;;
11711;SDS011;5912;51.034;6.984;2022-11-14T19:49:01;9.52;;;6.95;;
11711;SDS011;5912;51.034;6.984;2022-11-14T20:16:54;8.67;;;6.63;;
11711;SDS011;5912;51.034;6.984;2022-11-14T20:20:42;8.48;;;6.25;;
11711;SDS011;5912;51.034;6.984;2022-11-14T20:31:27;8.65;;;6.25;;
11711;SDS011;5912;51.034;6.984;2022-11-14T20:38:03;9.17;;;6.20;;
11711;SDS011;5912;51.034;6.984;2022-11-14T22:05:36;8.82;;;5.38;;
11711;SDS011;5912;51.034;6.984;2022-11-14T22:08:02;5.80;;;4.57;;
11711;SDS011;5912;51.034;6.984;2022-11-14T22:10:27;6.00;;;4.57;;
11711;SDS011;5912;51.034;6.984;2022-11-14T22:12:52;6.35;;;5.28;;
11711;SDS011;5912;51.034;6.984;2022-11-14T22:15:18;5.50;;;4.40;;
11711;SDS011;5912;51.034;6.984;2022-11-14T22:17:44;6.25;;;4.90;;
11711;SDS011;5912;51.034;6.984;2022-11-14T22:20:09;6.20;;;4.70;;
11711;SDS011;5912;51.034;6.984;2022-11-14T22:22:35;4.60;;;4.07;;
11711;SDS011;5912;51.034;6.984;2022-11-14T22:25:00;5.75;;;4.32;;
11711;SDS011;5912;51.034;6.984;2022-11-14T22:27:26;7.40;;;4.72;;
11711;SDS011;5912;51.034;6.984;2022-11-14T22:29:54;7.82;;;5.07;;
11711;SDS011;5912;51.034;6.984;2022-11-14T22:32:19;6.22;;;4.85;;
11711;SDS011;5912;51.034;6.984;2022-11-14T22:34:44;6.60;;;5.00;;
11711;SDS011;5912;51.034;6.984;2022-11-14T22:37:10;6.18;;;4.38;;
11711;SDS011;5912;51.034;6.984;2022-11-14T22:39:35;7.00;;;4.68;;
11711;SDS011;5912;51.034;6.984;2022-11-14T22:42:00;7.75;;;4.80;;
11711;SDS011;5912;51.034;6.984;2022-11-14T22:44:26;5.50;;;4.50;;
11711;SDS011;5912;51.034;6.984;2022-11-14T22:46:51;6.05;;;4.57;;
11711;SDS011;5912;51.034;6.984;2022-11-14T22:49:16;6.50;;;4.10;;
11711;SDS011;5912;51.034;6.984;2022-11-14T22:51:41;5.30;;;4.35;;
11711;SDS011;5912;51.034;6.984;2022-11-14T22:54:07;7.03;;;5.00;;
11711;SDS011;5912;51.034;6.984;2022-11-14T22:56:33;6.70;;;4.60;;
11711;SDS011;5912;51.034;6.984;2022-11-14T22:58:58;7.50;;;4.63;;
11711;SDS011;5912;51.034;6.984;2022-11-14T23:01:28;6.25;;;4.65;;
11711;SDS011;5912;51.034;6.984;2022-11-14T23:03:58;6.03;;;4.80;;
11711;SDS011;5912;51.034;6.984;2022-11-14T23:06:27;6.75;;;5.80;;
11711;SDS011;5912;51.034;6.984;2022-11-14T23:08:54;6.25;;;4.78;;
11711;SDS011;5912;51.034;6.984;2022-11-14T23:11:21;6.57;;;4.80;;
11711;SDS011;5912;51.034;6.984;2022-11-14T23:13:49;7.57;;;4.68;;
11711;SDS011;5912;51.034;6.984;2022-11-14T23:16:17;5.38;;;4.68;;
11711;SDS011;5912;51.034;6.984;2022-11-14T23:18:46;8.65;;;4.40;;
11711;SDS011;5912;51.034;6.984;2022-11-14T23:21:13;5.53;;;4.40;;
11711;SDS011;5912;51.034;6.984;2022-11-14T23:23:39;5.38;;;4.32;;
11711;SDS011;5912;51.034;6.984;2022-11-14T23:26:06;6.88;;;4.80;;
11711;SDS011;5912;51.034;6.984;2022-11-14T23:28:37;7.47;;;4.60;;
11711;SDS011;5912;51.034;6.984;2022-11-14T23:31:03;5.38;;;4.43;;
11711;SDS011;5912;51.034;6.984;2022-11-14T23:33:29;5.30;;;4.00;;
11711;SDS011;5912;51.034;6.984;2022-11-14T23:35:54;5.13;;;3.97;;
11711;SDS011;5912;51.034;6.984;2022-11-14T23:38:20;6.30;;;4.00;;
11711;SDS011;5912;51.034;6.984;2022-11-14T23:40:52;5.55;;;4.90;;
11711;SDS011;5912;51.034;6.984;2022-11-14T23:43:18;6.68;;;4.78;;